createdAt,value
2018-01-22T00:00:00.920Z,36.53
2018-01-22T00:02:28.380Z,38.30
2018-01-22T00:04:56.133Z,40.70
2018-01-22T00:07:23.607Z,37.33
2018-01-22T00:09:51.064Z,34.43
2018-01-22T00:12:19.142Z,38.03
2018-01-22T00:14:46.601Z,34.93
2018-01-22T00:17:14.056Z,35.40
2018-01-22T00:19:42.087Z,32.13
2018-01-22T00:22:11.344Z,30.70
2018-01-22T00:24:38.796Z,29.90
2018-01-22T00:27:06.655Z,28.63
2018-01-22T00:29:34.110Z,29.33
2018-01-22T00:32:01.565Z,28.33
2018-01-22T00:34:29.654Z,27.75
2018-01-22T00:36:57.113Z,23.50
2018-01-22T00:39:24.571Z,27.50
2018-01-22T00:41:52.331Z,28.93
2018-01-22T00:44:19.781Z,29.00
2018-01-22T00:46:47.332Z,28.67
2018-01-22T00:49:15.021Z,27.37
2018-01-22T00:51:42.481Z,27.77
2018-01-22T00:54:09.931Z,24.43
2018-01-22T00:56:37.708Z,25.67
2018-01-22T00:59:05.164Z,23.47
2018-01-22T01:01:32.685Z,23.87
2018-01-22T01:04:00.703Z,22.90
2018-01-22T01:06:28.168Z,27.10
2018-01-22T01:08:55.628Z,22.77
2018-01-22T01:11:23.396Z,26.37
2018-01-22T01:13:51.236Z,27.20
2018-01-22T01:16:18.700Z,26.90
2018-01-22T01:18:46.432Z,29.40
2018-01-22T01:21:13.902Z,28.50
2018-01-22T01:23:41.353Z,27.40
2018-01-22T01:26:09.078Z,28.33
2018-01-22T01:28:36.542Z,27.17
2018-01-22T01:31:04.003Z,25.83
2018-01-22T01:33:31.777Z,27.30
2018-01-22T01:35:59.262Z,28.07
2018-01-22T01:38:26.721Z,29.47
2018-01-22T01:40:54.445Z,33.40
2018-01-22T01:43:21.906Z,32.23
2018-01-22T01:45:49.374Z,30.50
2018-01-22T01:48:17.132Z,33.03
2018-01-22T01:50:44.592Z,33.60
2018-01-22T01:53:12.049Z,34.83
2018-01-22T01:55:40.134Z,32.33
2018-01-22T01:58:07.614Z,30.37
2018-01-22T02:00:35.072Z,30.00
2018-01-22T02:03:02.820Z,29.12
2018-01-22T02:05:30.292Z,33.20
2018-01-22T02:07:57.757Z,31.77
2018-01-22T02:10:25.499Z,32.38
2018-01-22T02:12:52.972Z,29.98
2018-01-22T02:15:21.119Z,29.87
2018-01-22T02:17:48.803Z,29.05
2018-01-22T02:20:16.273Z,29.17
2018-01-22T02:22:43.756Z,27.62
2018-01-22T02:25:11.481Z,29.23
2018-01-22T02:27:38.967Z,27.25
2018-01-22T02:30:06.444Z,28.38
2018-01-22T02:32:34.173Z,24.95
2018-01-22T02:35:01.646Z,26.23
2018-01-22T02:37:29.121Z,24.95
2018-01-22T02:39:56.937Z,28.27
2018-01-22T02:42:24.406Z,28.35
2018-01-22T02:44:51.877Z,25.98
2018-01-22T02:47:19.548Z,23.60
2018-01-22T02:49:47.012Z,20.87
2018-01-22T02:52:14.481Z,21.75
2018-01-22T02:54:42.239Z,22.80
2018-01-22T02:57:09.709Z,23.85
2018-01-22T02:59:37.186Z,20.73
2018-01-22T03:02:04.928Z,23.03
2018-01-22T03:04:32.396Z,23.13
2018-01-22T03:06:59.853Z,22.77
2018-01-22T03:09:28.230Z,24.97
2018-01-22T03:11:55.694Z,25.50
2018-01-22T03:14:23.164Z,28.70
2018-01-22T03:16:51.220Z,25.93
2018-01-22T03:19:18.681Z,27.07
2018-01-22T03:21:46.137Z,26.00
2018-01-22T03:24:13.902Z,27.97
2018-01-22T03:26:41.358Z,26.43
2018-01-22T03:29:08.811Z,26.40
2018-01-22T03:31:36.588Z,24.10
2018-01-22T03:34:04.037Z,24.10
2018-01-22T03:36:31.494Z,25.77
2018-01-22T03:38:59.285Z,24.37
2018-01-22T03:41:26.748Z,24.97
2018-01-22T03:43:54.246Z,26.40
2018-01-22T03:46:21.965Z,24.87
2018-01-22T03:48:49.438Z,26.87
2018-01-22T03:51:16.964Z,27.00
2018-01-22T03:53:44.653Z,27.77
2018-01-22T03:56:12.104Z,23.73
2018-01-22T03:58:39.563Z,25.97
2018-01-22T04:01:07.345Z,25.65
2018-01-22T04:03:34.800Z,25.20
2018-01-22T04:06:02.268Z,26.13
2018-01-22T04:08:30.033Z,26.67
2018-01-22T04:10:57.493Z,27.40
2018-01-22T04:13:24.957Z,30.50
2018-01-22T04:15:52.722Z,29.17
2018-01-22T04:18:20.872Z,29.90
2018-01-22T04:20:48.320Z,29.33
2018-01-22T04:23:16.020Z,35.60
2018-01-22T04:25:43.481Z,35.10
2018-01-22T04:28:10.945Z,37.97
2018-01-22T04:30:39.005Z,34.97
2018-01-22T04:33:06.466Z,29.20
2018-01-22T04:35:33.917Z,24.60
2018-01-22T04:38:01.707Z,26.10
2018-01-22T04:40:29.164Z,27.97
2018-01-22T04:42:56.668Z,26.50
2018-01-22T04:45:24.387Z,30.17
2018-01-22T04:47:51.852Z,28.97
2018-01-22T04:50:19.310Z,30.10
2018-01-22T04:52:47.068Z,29.80
2018-01-22T04:55:14.539Z,31.60
2018-01-22T04:57:41.996Z,28.87
2018-01-22T05:00:10.062Z,30.33
2018-01-22T05:02:38.409Z,31.37
2018-01-22T05:05:05.989Z,30.50
2018-01-22T05:07:34.518Z,35.33
2018-01-22T05:10:01.981Z,36.97
2018-01-22T05:12:29.448Z,39.20
2018-01-22T05:14:57.286Z,37.90
2018-01-22T05:17:24.749Z,36.67
2018-01-22T05:19:53.208Z,40.03
2018-01-22T05:22:21.202Z,41.27
2018-01-22T05:24:48.666Z,40.07
2018-01-22T05:27:16.129Z,36.73
2018-01-22T05:29:43.888Z,34.70
2018-01-22T05:32:11.342Z,39.43
2018-01-22T05:34:38.807Z,36.27
2018-01-22T05:37:06.516Z,34.93
2018-01-22T05:39:33.982Z,31.70
2018-01-22T05:42:01.433Z,31.57
2018-01-22T05:44:29.249Z,29.27
2018-01-22T05:46:56.701Z,29.83
2018-01-22T05:49:24.151Z,26.70
2018-01-22T05:51:51.942Z,25.90
2018-01-22T05:54:19.397Z,26.27
2018-01-22T05:56:46.857Z,26.07
2018-01-22T05:59:14.631Z,24.70
2018-01-22T06:01:42.086Z,26.43
2018-01-22T06:04:09.539Z,25.60
2018-01-22T06:06:37.317Z,25.10
2018-01-22T06:09:04.769Z,23.87
2018-01-22T06:11:32.412Z,22.20
2018-01-22T06:14:00.238Z,23.00
2018-01-22T06:16:27.689Z,22.67
2018-01-22T06:18:55.144Z,19.77
2018-01-22T06:21:25.472Z,18.03
2018-01-22T06:23:52.924Z,19.67
2018-01-22T06:26:20.436Z,18.57
2018-01-22T06:28:48.152Z,17.60
2018-01-22T06:31:15.612Z,19.97
2018-01-22T06:33:43.067Z,18.47
2018-01-22T06:36:10.835Z,19.93
2018-01-22T06:38:38.300Z,19.43
2018-01-22T06:41:05.752Z,20.90
2018-01-22T06:43:33.516Z,19.50
2018-01-22T06:46:00.971Z,19.93
2018-01-22T06:48:28.415Z,20.10
2018-01-22T06:50:56.313Z,20.43
2018-01-22T06:53:23.770Z,20.93
2018-01-22T06:55:51.232Z,17.77
2018-01-22T06:58:19.197Z,19.47
2018-01-22T07:00:46.649Z,18.77
2018-01-22T07:03:14.114Z,18.60
2018-01-22T07:05:41.912Z,17.30
2018-01-22T07:08:09.373Z,16.40
2018-01-22T07:10:36.826Z,18.40
2018-01-22T07:13:04.572Z,17.87
2018-01-22T07:15:32.028Z,19.37
2018-01-22T07:17:59.496Z,19.13
2018-01-22T07:20:27.253Z,16.90
2018-01-22T07:22:55.352Z,20.47
2018-01-22T07:25:22.825Z,18.60
2018-01-22T07:27:50.877Z,19.13
2018-01-22T07:30:18.345Z,20.40
2018-01-22T07:32:45.816Z,20.37
2018-01-22T07:35:13.563Z,21.10
2018-01-22T07:37:41.014Z,19.83
2018-01-22T07:40:08.477Z,19.40
2018-01-22T07:42:36.106Z,20.63
2018-01-22T07:45:03.556Z,19.53
2018-01-22T07:47:31.013Z,17.67
2018-01-22T07:49:58.938Z,22.40
2018-01-22T07:52:26.396Z,19.60
2018-01-22T07:54:53.854Z,20.33
2018-01-22T07:57:21.477Z,20.63
2018-01-22T07:59:48.928Z,20.53
2018-01-22T08:02:16.384Z,19.77
2018-01-22T08:04:44.306Z,19.83
2018-01-22T08:07:11.756Z,23.40
2018-01-22T08:09:39.210Z,19.73
2018-01-22T08:12:06.998Z,19.97
2018-01-22T08:14:34.533Z,19.27
2018-01-22T08:17:01.994Z,18.83
2018-01-22T08:19:29.860Z,22.70
2018-01-22T08:21:57.320Z,20.40
2018-01-22T08:24:27.135Z,21.80
2018-01-22T08:26:54.937Z,21.27
2018-01-22T08:29:22.385Z,18.70
2018-01-22T08:31:49.842Z,18.77
2018-01-22T08:34:17.816Z,19.20
2018-01-22T08:36:45.272Z,21.20
2018-01-22T08:39:12.726Z,19.97
2018-01-22T08:41:40.816Z,19.77
2018-01-22T08:44:08.277Z,20.67
2018-01-22T08:46:35.741Z,19.20
2018-01-22T08:49:03.586Z,19.13
2018-01-22T08:51:31.037Z,20.73
2018-01-22T08:53:58.488Z,17.47
2018-01-22T08:56:26.185Z,19.97
2018-01-22T08:58:53.636Z,18.20
2018-01-22T09:01:21.114Z,19.90
2018-01-22T09:03:49.172Z,18.67
2018-01-22T09:06:16.627Z,17.13
2018-01-22T09:08:44.072Z,16.47
2018-01-22T09:11:11.860Z,16.10
2018-01-22T09:13:39.315Z,17.20
2018-01-22T09:16:06.795Z,18.60
2018-01-22T09:18:34.552Z,16.63
2018-01-22T09:21:02.003Z,17.57
2018-01-22T09:23:29.449Z,17.83
2018-01-22T09:25:58.169Z,16.33
2018-01-22T09:28:25.626Z,15.40
2018-01-22T09:30:53.083Z,15.33
2018-01-22T09:33:20.852Z,16.07
2018-01-22T09:35:48.301Z,15.87
2018-01-22T09:38:15.750Z,15.50
2018-01-22T09:40:43.484Z,14.63
2018-01-22T09:43:10.942Z,15.50
2018-01-22T09:45:38.401Z,14.17
2018-01-22T09:48:06.217Z,14.90
2018-01-22T09:50:33.672Z,15.20
2018-01-22T09:53:01.121Z,14.67
2018-01-22T09:55:28.914Z,15.17
2018-01-22T09:57:56.363Z,16.27
2018-01-22T10:00:23.813Z,15.93
2018-01-22T10:02:51.611Z,14.97
2018-01-22T10:05:19.064Z,15.40
2018-01-22T10:07:46.524Z,15.77
2018-01-22T10:10:14.289Z,14.93
2018-01-22T10:12:41.752Z,16.10
2018-01-22T10:15:09.214Z,15.23
2018-01-22T10:17:36.976Z,15.20
2018-01-22T10:20:04.440Z,16.50
2018-01-22T10:22:31.896Z,15.43
2018-01-22T10:24:59.665Z,15.33
2018-01-22T10:27:27.500Z,15.40
2018-01-22T10:29:54.953Z,14.93
2018-01-22T10:32:22.654Z,14.80
2018-01-22T10:34:50.096Z,14.97
2018-01-22T10:37:17.553Z,15.00
2018-01-22T10:39:45.651Z,17.17
2018-01-22T10:42:13.097Z,14.17
2018-01-22T10:44:40.540Z,16.57
2018-01-22T10:47:08.329Z,16.03
2018-01-22T10:49:35.784Z,15.27
2018-01-22T10:52:03.237Z,14.93
2018-01-22T10:54:31.047Z,16.67
2018-01-22T10:56:58.499Z,15.83
2018-01-22T10:59:25.959Z,15.83
2018-01-22T11:01:54.022Z,16.93
2018-01-22T11:04:21.505Z,16.80
2018-01-22T11:06:48.960Z,14.80
2018-01-22T11:09:16.706Z,15.87
2018-01-22T11:11:44.163Z,16.40
2018-01-22T11:14:11.613Z,14.97
2018-01-22T11:16:40.018Z,17.23
2018-01-22T11:19:07.467Z,15.97
2018-01-22T11:21:34.915Z,15.83
2018-01-22T11:24:02.712Z,18.47
2018-01-22T11:26:30.628Z,18.80
2018-01-22T11:28:58.621Z,16.10
2018-01-22T11:31:26.321Z,17.87
2018-01-22T11:33:53.773Z,16.87
2018-01-22T11:36:21.262Z,17.00
2018-01-22T11:38:48.990Z,17.03
2018-01-22T11:41:16.492Z,19.87
2018-01-22T11:43:43.953Z,19.60
2018-01-22T11:46:11.663Z,18.27
2018-01-22T11:48:39.121Z,17.50
2018-01-22T11:51:06.580Z,18.00
2018-01-22T11:53:34.356Z,19.57
2018-01-22T11:56:01.804Z,19.57
2018-01-22T11:58:29.416Z,21.70
2018-01-22T12:00:57.354Z,20.17
2018-01-22T12:03:24.804Z,20.27
2018-01-22T12:05:52.351Z,21.67
2018-01-22T12:08:20.052Z,19.67
2018-01-22T12:10:47.509Z,18.40
2018-01-22T12:13:14.976Z,20.17
2018-01-22T12:15:42.741Z,21.27
2018-01-22T12:18:10.200Z,18.90
2018-01-22T12:20:37.660Z,19.27
2018-01-22T12:23:05.444Z,19.30
2018-01-22T12:25:32.901Z,20.90
2018-01-22T12:28:00.383Z,20.40
2018-01-22T12:30:29.032Z,22.33
2018-01-22T12:32:56.493Z,21.80
2018-01-22T12:35:23.947Z,22.37
2018-01-22T12:37:52.017Z,21.50
2018-01-22T12:40:19.476Z,19.37
2018-01-22T12:42:46.928Z,19.57
2018-01-22T12:45:14.693Z,18.80
2018-01-22T12:47:42.157Z,21.23
2018-01-22T12:50:09.613Z,20.63
2018-01-22T12:52:37.395Z,22.07
2018-01-22T12:55:04.857Z,20.57
2018-01-22T12:57:32.312Z,22.13
2018-01-22T13:00:00.091Z,22.90
2018-01-22T13:02:27.552Z,22.63
2018-01-22T13:04:55.020Z,24.80
2018-01-22T13:07:23.076Z,24.33
2018-01-22T13:09:50.536Z,23.00
2018-01-22T13:12:17.992Z,23.80
2018-01-22T13:14:45.766Z,22.57
2018-01-22T13:17:13.226Z,21.83
2018-01-22T13:19:40.691Z,22.27
2018-01-22T13:22:08.440Z,22.40
2018-01-22T13:24:35.895Z,23.87
2018-01-22T13:27:03.352Z,26.10
2018-01-22T13:29:31.134Z,25.67
2018-01-22T13:31:58.981Z,24.63
2018-01-22T13:34:26.444Z,23.33
2018-01-22T13:36:54.362Z,25.47
2018-01-22T13:39:21.820Z,25.60
2018-01-22T13:41:49.276Z,23.33
2018-01-22T13:44:17.124Z,23.87
2018-01-22T13:46:44.591Z,24.93
2018-01-22T13:49:12.057Z,23.33
2018-01-22T13:51:39.819Z,25.97
2018-01-22T13:54:07.745Z,22.80
2018-01-22T13:56:35.190Z,25.03
2018-01-22T13:59:03.125Z,23.83
2018-01-22T14:01:30.584Z,22.80
2018-01-22T14:03:58.046Z,24.17
2018-01-22T14:06:26.372Z,23.37
2018-01-22T14:08:53.832Z,23.10
2018-01-22T14:11:21.323Z,21.00
2018-01-22T14:13:49.106Z,22.37
2018-01-22T14:16:16.606Z,21.07
2018-01-22T14:18:44.068Z,21.60
2018-01-22T14:21:11.788Z,21.10
2018-01-22T14:23:39.257Z,22.47
2018-01-22T14:26:06.732Z,23.77
2018-01-22T14:28:34.445Z,24.17
2018-01-22T14:31:01.925Z,25.90
2018-01-22T14:33:29.723Z,28.07
2018-01-22T14:35:57.473Z,28.70
2018-01-22T14:38:24.939Z,27.00
2018-01-22T14:40:52.409Z,26.37
2018-01-22T14:43:23.222Z,27.63
2018-01-22T14:45:50.681Z,26.70
2018-01-22T14:48:18.140Z,27.73
2018-01-22T14:50:45.908Z,28.47
2018-01-22T14:53:13.365Z,29.00
2018-01-22T14:55:40.824Z,28.03
2018-01-22T14:58:08.547Z,27.83
2018-01-22T15:00:36.007Z,28.37
2018-01-22T15:03:03.474Z,28.40
2018-01-22T15:05:31.280Z,28.23
2018-01-22T15:07:58.735Z,27.77
2018-01-22T15:10:26.188Z,26.30
2018-01-22T15:12:54.285Z,25.60
2018-01-22T15:15:21.741Z,28.17
2018-01-22T15:17:49.195Z,29.07
2018-01-22T15:20:17.024Z,29.50
2018-01-22T15:22:45.316Z,27.77
2018-01-22T15:25:12.777Z,27.37
2018-01-22T15:27:40.579Z,29.77
2018-01-22T15:30:08.042Z,30.73
2018-01-22T15:32:35.493Z,29.60
2018-01-22T15:35:03.944Z,30.50
2018-01-22T15:37:31.392Z,28.30
2018-01-22T15:39:58.856Z,27.90
2018-01-22T15:42:26.860Z,28.20
2018-01-22T15:44:54.321Z,28.00
2018-01-22T15:47:21.769Z,26.97
2018-01-22T15:49:49.556Z,31.50
2018-01-22T15:52:17.008Z,28.50
2018-01-22T15:54:44.460Z,26.37
2018-01-22T15:57:12.258Z,25.40
2018-01-22T15:59:39.720Z,27.93
2018-01-22T16:02:07.170Z,27.50
2018-01-22T16:04:34.937Z,26.80
2018-01-22T16:07:02.392Z,27.37
2018-01-22T16:09:29.857Z,28.47
2018-01-22T16:11:57.570Z,27.70
2018-01-22T16:14:25.032Z,29.27
2018-01-22T16:16:52.482Z,32.30
2018-01-22T16:19:20.304Z,39.13
2018-01-22T16:21:47.764Z,34.97
2018-01-22T16:24:15.212Z,32.70
2018-01-22T16:26:42.993Z,34.60
2018-01-22T16:29:10.440Z,34.07
2018-01-22T16:31:37.908Z,36.40
2018-01-22T16:34:05.677Z,33.27
2018-01-22T16:36:33.837Z,33.10
2018-01-22T16:39:01.304Z,33.90
2018-01-22T16:41:29.174Z,36.27
2018-01-22T16:43:56.630Z,35.10
2018-01-22T16:46:24.084Z,34.67
2018-01-22T16:48:51.984Z,33.57
2018-01-22T16:51:19.478Z,37.07
2018-01-22T16:53:46.932Z,39.77
2018-01-22T16:56:14.659Z,33.90
2018-01-22T16:58:42.131Z,32.27
2018-01-22T17:01:09.682Z,35.47
2018-01-22T17:03:37.655Z,34.57
2018-01-22T17:06:05.644Z,35.90
2018-01-22T17:08:33.104Z,35.90
2018-01-22T17:11:00.955Z,34.00
2018-01-22T17:13:28.406Z,36.33
2018-01-22T17:15:55.862Z,38.23
2018-01-22T17:18:24.011Z,36.17
2018-01-22T17:20:51.672Z,38.77
2018-01-22T17:23:19.227Z,37.43
2018-01-22T17:25:47.128Z,36.07
2018-01-22T17:28:15.241Z,38.97
2018-01-22T17:30:42.705Z,34.97
2018-01-22T17:33:10.569Z,38.10
2018-01-22T17:35:38.492Z,39.37
2018-01-22T17:38:07.830Z,38.83
2018-01-22T17:40:37.074Z,40.30
2018-01-22T17:43:04.586Z,40.87
2018-01-22T17:45:32.054Z,42.30
2018-01-22T17:47:59.769Z,40.20
2018-01-22T17:50:27.214Z,36.23
2018-01-22T17:52:54.685Z,38.97
2018-01-22T17:55:22.604Z,39.07
2018-01-22T17:57:50.051Z,37.47
2018-01-22T18:00:17.517Z,36.10
2018-01-22T18:02:45.297Z,37.67
2018-01-22T18:05:12.754Z,39.00
2018-01-22T18:07:40.201Z,37.10
2018-01-22T18:10:08.308Z,36.13
2018-01-22T18:12:35.761Z,40.30
2018-01-22T18:15:03.225Z,39.70
2018-01-22T18:17:31.279Z,37.23
2018-01-22T18:19:58.728Z,40.40
2018-01-22T18:22:26.743Z,36.90
2018-01-22T18:24:54.761Z,37.53
2018-01-22T18:27:22.360Z,37.80
2018-01-22T18:29:49.817Z,38.53
2018-01-22T18:32:17.588Z,39.57
2018-01-22T18:34:45.368Z,37.97
2018-01-22T18:37:12.836Z,40.43
2018-01-22T18:39:41.492Z,36.73
2018-01-22T18:42:08.952Z,37.40
2018-01-22T18:44:36.397Z,38.57
2018-01-22T18:47:04.495Z,41.07
2018-01-22T18:49:31.995Z,38.10
2018-01-22T18:52:00.121Z,43.83
2018-01-22T18:54:28.848Z,41.30
2018-01-22T18:56:56.533Z,43.70
2018-01-22T18:59:24.244Z,42.33
2018-01-22T19:01:52.372Z,40.53
2018-01-22T19:04:19.829Z,39.83
2018-01-22T19:06:47.301Z,39.97
2018-01-22T19:09:14.993Z,41.73
2018-01-22T19:11:44.046Z,51.97
2018-01-22T19:14:11.694Z,44.60
2018-01-22T19:16:39.631Z,45.37
2018-01-22T19:19:07.241Z,42.03
2018-01-22T19:21:34.860Z,43.90
2018-01-22T19:24:03.453Z,45.77
2018-01-22T19:26:31.018Z,42.73
2018-01-22T19:28:58.753Z,43.67
2018-01-22T19:31:27.088Z,44.60
2018-01-22T19:33:54.805Z,43.53
2018-01-22T19:36:22.264Z,44.47
2018-01-22T19:38:50.091Z,46.30
2018-01-22T19:41:17.887Z,45.27
2018-01-22T19:43:47.091Z,71.20
2018-01-22T19:46:14.916Z,61.27
2018-01-22T19:48:42.384Z,48.87
2018-01-22T19:51:09.857Z,47.70
2018-01-22T19:53:37.889Z,49.50
2018-01-22T19:56:05.360Z,49.27
2018-01-22T19:58:32.828Z,47.57
2018-01-22T20:01:00.613Z,45.23
2018-01-22T20:03:28.117Z,43.80
2018-01-22T20:05:55.623Z,47.50
2018-01-22T20:08:23.577Z,43.77
2018-01-22T20:10:51.071Z,45.00
2018-01-22T20:13:18.528Z,49.37
2018-01-22T20:15:46.269Z,47.47
2018-01-22T20:18:14.348Z,46.90
2018-01-22T20:20:42.161Z,49.90
2018-01-22T20:23:10.165Z,54.50
2018-01-22T20:25:37.626Z,48.63
2018-01-22T20:28:05.086Z,47.10
2018-01-22T20:30:32.873Z,47.70
2018-01-22T20:33:00.345Z,47.77
2018-01-22T20:35:28.628Z,49.80
2018-01-22T20:37:57.405Z,49.60
2018-01-22T20:40:25.496Z,47.80
2018-01-22T20:42:53.568Z,50.60
2018-01-22T20:45:21.663Z,47.60
2018-01-22T20:47:49.725Z,47.77
2018-01-22T20:50:17.997Z,46.57
2018-01-22T20:52:46.448Z,49.47
2018-01-22T20:55:14.513Z,46.40
2018-01-22T20:57:42.333Z,51.87
2018-01-22T21:00:10.302Z,52.50
2018-01-22T21:02:37.754Z,53.27
2018-01-22T21:05:05.214Z,47.57
2018-01-22T21:07:33.124Z,46.57
2018-01-22T21:10:00.584Z,46.73
2018-01-22T21:12:28.056Z,49.33
2018-01-22T21:14:55.995Z,49.23
2018-01-22T21:17:23.464Z,49.40
2018-01-22T21:19:50.929Z,50.80
2018-01-22T21:22:18.748Z,51.33
2018-01-22T21:24:46.200Z,53.30
2018-01-22T21:27:13.664Z,49.27
2018-01-22T21:29:42.331Z,52.53
2018-01-22T21:32:10.330Z,49.73
2018-01-22T21:34:38.371Z,53.30
2018-01-22T21:37:06.272Z,53.07
2018-01-22T21:39:34.339Z,52.17
2018-01-22T21:42:02.407Z,53.70
2018-01-22T21:44:31.110Z,50.83
2018-01-22T21:46:58.567Z,54.10
2018-01-22T21:49:26.030Z,52.80
2018-01-22T21:51:54.057Z,54.60
2018-01-22T21:54:21.512Z,55.63
2018-01-22T21:56:48.967Z,53.37
2018-01-22T21:59:16.800Z,56.53
2018-01-22T22:01:44.290Z,54.50
2018-01-22T22:04:11.756Z,54.30
2018-01-22T22:06:39.472Z,51.90
2018-01-22T22:09:06.938Z,58.90
2018-01-22T22:11:34.466Z,58.70
2018-01-22T22:14:02.468Z,57.83
2018-01-22T22:16:29.929Z,57.47
2018-01-22T22:18:57.376Z,60.70
2018-01-22T22:21:25.152Z,61.60
2018-01-22T22:23:52.618Z,54.73
2018-01-22T22:26:20.085Z,58.73
2018-01-22T22:28:48.140Z,53.97
2018-01-22T22:31:15.593Z,54.80
2018-01-22T22:33:43.065Z,56.67
2018-01-22T22:36:10.836Z,60.00
2018-01-22T22:38:38.311Z,58.27
2018-01-22T22:41:05.780Z,53.13
2018-01-22T22:43:33.826Z,56.43
2018-01-22T22:46:01.808Z,54.20
2018-01-22T22:48:29.263Z,55.50
2018-01-22T22:50:57.139Z,56.17
2018-01-22T22:53:24.594Z,52.50
2018-01-22T22:55:52.053Z,49.80
2018-01-22T22:58:19.807Z,53.53
2018-01-22T23:00:47.260Z,52.83
2018-01-22T23:03:14.733Z,56.57
2018-01-22T23:05:42.505Z,57.03
2018-01-22T23:08:09.964Z,59.20
2018-01-22T23:10:37.425Z,55.43
2018-01-22T23:13:05.509Z,58.93
2018-01-22T23:15:32.969Z,59.20
2018-01-22T23:18:00.418Z,52.93
2018-01-22T23:20:28.189Z,58.40
2018-01-22T23:22:55.644Z,53.63
2018-01-22T23:25:23.107Z,53.17
2018-01-22T23:27:51.173Z,56.07
2018-01-22T23:30:18.621Z,59.00
2018-01-22T23:32:46.073Z,52.87
2018-01-22T23:35:13.963Z,60.30
2018-01-22T23:37:41.413Z,53.10
2018-01-22T23:40:08.868Z,55.03
2018-01-22T23:42:36.861Z,51.03
2018-01-22T23:45:04.317Z,51.77
2018-01-22T23:47:35.531Z,54.63
2018-01-22T23:50:03.228Z,55.30
2018-01-22T23:52:30.691Z,52.30
2018-01-22T23:54:58.145Z,49.90
2018-01-22T23:57:25.912Z,53.20
2018-01-22T23:59:53.356Z,55.30
